createdAt,value
2022-10-02T00:02:25.428Z,99.44
2022-10-02T00:05:28.682Z,99.60
2022-10-02T00:08:14.143Z,99.64
2022-10-02T00:11:02.992Z,99.61
2022-10-02T00:13:49.440Z,99.68
2022-10-02T00:16:33.457Z,99.72
2022-10-02T00:19:01.866Z,99.74
2022-10-02T00:21:52.576Z,99.76
2022-10-02T00:24:26.133Z,99.86
2022-10-02T00:26:57.957Z,99.90
2022-10-02T00:29:48.961Z,99.88
2022-10-02T00:32:38.826Z,99.86
2022-10-02T00:35:45.235Z,99.91
2022-10-02T00:38:35.802Z,100.00
2022-10-02T00:41:26.996Z,99.94
2022-10-02T00:44:15.905Z,99.96
2022-10-02T00:47:04.653Z,99.90
2022-10-02T00:49:46.607Z,100.00
2022-10-02T00:52:41.675Z,100.00
2022-10-02T00:55:18.313Z,99.98
2022-10-02T00:58:09.823Z,100.00
2022-10-02T01:00:37.641Z,99.95
2022-10-02T01:03:32.942Z,99.85
2022-10-02T01:06:00.713Z,99.96
2022-10-02T01:08:29.157Z,99.89
2022-10-02T01:10:57.018Z,99.83
2022-10-02T01:13:25.456Z,99.89
2022-10-02T01:15:57.242Z,99.75
2022-10-02T01:18:24.973Z,99.77
2022-10-02T01:20:55.569Z,99.73
2022-10-02T01:23:35.251Z,99.84
2022-10-02T01:26:03.199Z,99.82
2022-10-02T01:28:31.243Z,99.81
2022-10-02T01:31:06.011Z,99.64
2022-10-02T01:33:33.808Z,99.43
2022-10-02T01:36:01.930Z,99.72
2022-10-02T01:38:30.588Z,99.65
2022-10-02T01:40:58.504Z,99.59
2022-10-02T01:43:40.949Z,99.70
2022-10-02T01:46:20.297Z,99.64
2022-10-02T01:48:50.601Z,99.69
2022-10-02T01:51:56.067Z,99.68
2022-10-02T01:54:54.153Z,99.65
2022-10-02T01:57:27.357Z,98.96
2022-10-02T02:00:08.750Z,98.85
2022-10-02T02:02:45.307Z,98.39
2022-10-02T02:05:34.278Z,98.26
2022-10-02T02:08:29.844Z,97.98
2022-10-02T02:11:19.365Z,97.81
2022-10-02T02:14:01.587Z,97.77
2022-10-02T02:16:29.227Z,97.82
2022-10-02T02:19:06.351Z,97.55
2022-10-02T02:21:49.980Z,97.75
2022-10-02T02:24:46.669Z,98.02
2022-10-02T02:27:20.884Z,98.25
2022-10-02T02:29:51.933Z,98.21
2022-10-02T02:32:25.479Z,98.26
2022-10-02T02:35:02.917Z,97.98
2022-10-02T02:37:35.221Z,97.87
2022-10-02T02:40:05.689Z,97.88
2022-10-02T02:42:43.608Z,98.01
2022-10-02T02:45:18.332Z,97.96
2022-10-02T02:47:55.871Z,98.10
2022-10-02T02:50:38.806Z,98.19
2022-10-02T02:53:13.637Z,98.47
2022-10-02T02:56:02.782Z,98.53
2022-10-02T02:58:38.314Z,98.69
2022-10-02T03:01:06.009Z,98.78
2022-10-02T03:03:33.864Z,98.87
2022-10-02T03:06:23.256Z,98.97
2022-10-02T03:08:53.517Z,99.14
2022-10-02T03:11:43.114Z,99.26
2022-10-02T03:14:24.373Z,99.29
2022-10-02T03:17:04.853Z,99.36
2022-10-02T03:19:51.670Z,99.47
2022-10-02T03:22:21.999Z,99.35
2022-10-02T03:25:12.254Z,98.61
2022-10-02T03:27:53.698Z,98.70
2022-10-02T03:30:25.548Z,99.32
2022-10-02T03:32:54.701Z,99.42
2022-10-02T03:35:24.898Z,99.30
2022-10-02T03:37:57.290Z,99.30
2022-10-02T03:40:27.193Z,99.39
2022-10-02T03:42:59.310Z,99.38
2022-10-02T03:45:50.091Z,99.45
2022-10-02T03:48:16.448Z,99.50
2022-10-02T03:50:44.149Z,99.56
2022-10-02T03:53:16.254Z,99.68
2022-10-02T03:55:53.526Z,99.92
2022-10-02T03:58:21.309Z,99.96
2022-10-02T04:00:58.188Z,100.00
2022-10-02T04:03:32.085Z,100.00
2022-10-02T04:06:05.549Z,100.00
2022-10-02T04:08:38.314Z,100.00
2022-10-02T04:11:28.901Z,100.00
2022-10-02T04:13:59.813Z,100.00
2022-10-02T04:16:43.574Z,100.00
2022-10-02T04:19:26.622Z,100.00
2022-10-02T04:21:56.933Z,100.00
2022-10-02T04:24:46.521Z,100.00
2022-10-02T04:27:20.049Z,100.00
2022-10-02T04:29:56.219Z,100.00
2022-10-02T04:32:30.885Z,100.00
2022-10-02T04:35:00.138Z,100.00
2022-10-02T04:37:43.372Z,100.00
2022-10-02T04:40:51.612Z,100.00
2022-10-02T04:43:34.012Z,100.00
2022-10-02T04:46:35.135Z,100.00
2022-10-02T04:49:27.396Z,100.00
2022-10-02T04:52:25.432Z,100.00
2022-10-02T04:55:08.382Z,100.00
2022-10-02T04:57:50.918Z,100.00
2022-10-02T05:00:22.790Z,100.00
2022-10-02T05:03:11.873Z,100.00
2022-10-02T05:06:00.904Z,100.00
2022-10-02T05:08:58.422Z,100.00
2022-10-02T05:11:25.991Z,100.00
2022-10-02T05:14:12.175Z,100.00
2022-10-02T05:16:51.108Z,100.00
2022-10-02T05:19:46.441Z,100.00
2022-10-02T05:22:38.114Z,100.00
2022-10-02T05:25:11.731Z,100.00
2022-10-02T05:28:06.052Z,100.00
2022-10-02T05:30:47.004Z,100.00
2022-10-02T05:33:33.298Z,100.00
2022-10-02T05:36:30.986Z,100.00
2022-10-02T05:39:03.758Z,100.00
2022-10-02T05:41:46.807Z,100.00
2022-10-02T05:44:26.953Z,100.00
2022-10-02T05:47:11.818Z,100.00
2022-10-02T05:49:42.861Z,100.00
2022-10-02T05:52:30.925Z,100.00
2022-10-02T05:55:04.875Z,100.00
2022-10-02T05:57:39.506Z,100.00
2022-10-02T06:00:33.465Z,100.00
2022-10-02T06:03:08.479Z,100.00
2022-10-02T06:05:41.954Z,100.00
2022-10-02T06:08:14.453Z,100.00
2022-10-02T06:10:47.418Z,100.00
2022-10-02T06:13:25.109Z,100.00
2022-10-02T06:16:06.915Z,100.00
2022-10-02T06:18:37.593Z,100.00
2022-10-02T06:21:13.950Z,100.00
2022-10-02T06:23:47.062Z,100.00
2022-10-02T06:26:44.085Z,100.00
2022-10-02T06:29:26.299Z,100.00
2022-10-02T06:32:13.062Z,100.00
2022-10-02T06:34:44.582Z,100.00
2022-10-02T06:37:20.707Z,100.00
2022-10-02T06:40:13.240Z,100.00
2022-10-02T06:43:09.929Z,100.00
2022-10-02T06:46:05.156Z,100.00
2022-10-02T06:48:45.203Z,100.00
2022-10-02T06:51:25.739Z,100.00
2022-10-02T06:54:01.182Z,100.00
2022-10-02T06:57:19.765Z,100.00
2022-10-02T06:59:59.497Z,100.00
2022-10-02T07:02:51.642Z,100.00
2022-10-02T07:05:29.090Z,100.00
2022-10-02T07:08:05.773Z,98.16
2022-10-02T07:10:44.144Z,98.58
2022-10-02T07:14:02.006Z,98.31
2022-10-02T07:16:48.590Z,97.90
2022-10-02T07:20:09.026Z,98.34
2022-10-02T07:22:57.723Z,97.85
2022-10-02T07:25:57.225Z,97.25
2022-10-02T07:28:40.895Z,97.13
2022-10-02T07:31:16.699Z,97.03
2022-10-02T07:34:03.746Z,96.99
2022-10-02T07:36:54.604Z,95.91
2022-10-02T07:39:22.166Z,95.51
2022-10-02T07:41:55.752Z,96.63
2022-10-02T07:44:29.365Z,95.31
2022-10-02T07:47:09.969Z,95.89
2022-10-02T07:49:40.526Z,95.83
2022-10-02T07:52:17.343Z,95.87
2022-10-02T07:55:03.745Z,95.77
2022-10-02T07:57:42.230Z,96.06
2022-10-02T08:00:19.984Z,95.23
2022-10-02T08:02:53.779Z,95.11
2022-10-02T08:05:29.291Z,94.99
2022-10-02T08:08:03.463Z,95.04
2022-10-02T08:10:39.148Z,94.68
2022-10-02T08:13:16.583Z,94.04
2022-10-02T08:15:48.319Z,93.85
2022-10-02T08:18:34.799Z,93.24
2022-10-02T08:21:06.534Z,93.82
2022-10-02T08:23:43.662Z,94.14
2022-10-02T08:26:20.716Z,93.05
2022-10-02T08:29:06.940Z,93.31
2022-10-02T08:31:34.765Z,93.65
2022-10-02T08:34:15.136Z,93.56
2022-10-02T08:37:04.813Z,93.35
2022-10-02T08:39:56.997Z,92.53
2022-10-02T08:42:52.034Z,92.19
2022-10-02T08:45:35.406Z,91.41
2022-10-02T08:48:24.679Z,90.92
2022-10-02T08:51:11.956Z,90.87
2022-10-02T08:53:55.403Z,90.86
2022-10-02T08:56:42.151Z,92.04
2022-10-02T08:59:26.997Z,92.72
2022-10-02T09:02:39.844Z,93.67
2022-10-02T09:05:27.050Z,94.44
2022-10-02T09:08:09.970Z,94.73
2022-10-02T09:10:56.761Z,95.15
2022-10-02T09:13:51.126Z,95.04
2022-10-02T09:16:40.307Z,95.16
2022-10-02T09:19:21.826Z,95.16
2022-10-02T09:21:58.949Z,94.25
2022-10-02T09:25:02.498Z,94.57
2022-10-02T09:28:18.921Z,94.26
2022-10-02T09:31:05.569Z,93.09
2022-10-02T09:33:36.045Z,93.61
2022-10-02T09:36:53.276Z,93.18
2022-10-02T09:39:41.759Z,91.76
2022-10-02T09:42:21.146Z,92.25
2022-10-02T09:45:08.472Z,92.14
2022-10-02T09:48:09.787Z,91.99
2022-10-02T09:51:18.735Z,91.84
2022-10-02T09:54:14.645Z,91.92
2022-10-02T09:57:03.397Z,91.46
2022-10-02T09:59:52.365Z,91.41
2022-10-02T10:02:24.793Z,91.46
2022-10-02T10:05:08.249Z,90.97
2022-10-02T10:07:53.957Z,90.67
2022-10-02T10:10:39.317Z,91.25
2022-10-02T10:13:21.540Z,90.70
2022-10-02T10:16:29.669Z,90.78
2022-10-02T10:19:12.564Z,92.12
2022-10-02T10:22:17.455Z,92.25
2022-10-02T10:24:59.965Z,91.54
2022-10-02T10:27:44.243Z,90.64
2022-10-02T10:30:27.776Z,91.00
2022-10-02T10:33:10.311Z,91.26
2022-10-02T10:35:54.831Z,90.52
2022-10-02T10:38:50.676Z,90.47
2022-10-02T10:41:30.526Z,88.77
2022-10-02T10:44:28.697Z,89.42
2022-10-02T10:47:03.757Z,89.31
2022-10-02T10:50:03.741Z,89.98
2022-10-02T10:52:52.654Z,90.62
2022-10-02T10:55:34.298Z,90.84
2022-10-02T10:58:08.083Z,91.29
2022-10-02T11:01:10.929Z,92.12
2022-10-02T11:03:59.411Z,93.10
2022-10-02T11:07:09.858Z,93.94
2022-10-02T11:10:03.495Z,95.49
2022-10-02T11:12:56.458Z,96.34
2022-10-02T11:15:49.162Z,96.71
2022-10-02T11:18:32.292Z,95.99
2022-10-02T11:21:08.995Z,96.23
2022-10-02T11:23:45.918Z,94.83
2022-10-02T11:26:28.724Z,93.83
2022-10-02T11:29:16.779Z,94.50
2022-10-02T11:31:56.558Z,93.08
2022-10-02T11:34:45.124Z,92.96
2022-10-02T11:37:46.467Z,92.56
2022-10-02T11:40:42.261Z,93.19
2022-10-02T11:43:16.017Z,90.23
2022-10-02T11:45:56.771Z,88.83
2022-10-02T11:49:08.629Z,89.11
2022-10-02T11:52:08.527Z,88.44
2022-10-02T11:55:00.691Z,88.77
2022-10-02T11:57:49.147Z,88.78
2022-10-02T12:00:46.523Z,87.82
2022-10-02T12:03:38.647Z,87.89
2022-10-02T12:06:28.052Z,86.94
2022-10-02T12:09:10.954Z,85.74
2022-10-02T12:11:51.215Z,84.95
2022-10-02T12:15:06.013Z,85.48
2022-10-02T12:17:33.556Z,84.77
2022-10-02T12:20:34.349Z,84.80
2022-10-02T12:23:51.885Z,84.32
2022-10-02T12:26:50.372Z,83.03
2022-10-02T12:29:20.893Z,82.90
2022-10-02T12:32:11.551Z,83.04
2022-10-02T12:35:20.671Z,83.25
2022-10-02T12:38:13.330Z,81.91
2022-10-02T12:41:09.662Z,82.97
2022-10-02T12:43:46.129Z,81.95
2022-10-02T12:46:31.883Z,82.11
2022-10-02T12:49:33.284Z,82.18
2022-10-02T12:52:25.054Z,82.63
2022-10-02T12:55:28.727Z,82.79
2022-10-02T12:58:39.960Z,83.34
2022-10-02T13:01:32.857Z,83.70
2022-10-02T13:04:24.976Z,83.89
2022-10-02T13:06:55.616Z,84.36
2022-10-02T13:09:47.569Z,84.57
2022-10-02T13:13:09.489Z,84.05
2022-10-02T13:15:44.120Z,84.36
2022-10-02T13:18:28.831Z,84.25
2022-10-02T13:21:27.874Z,84.43
2022-10-02T13:24:09.690Z,84.06
2022-10-02T13:26:54.703Z,84.00
2022-10-02T13:29:44.065Z,84.89
2022-10-02T13:32:33.326Z,84.53
2022-10-02T13:35:22.332Z,84.46
2022-10-02T13:38:11.338Z,84.49
2022-10-02T13:40:58.135Z,84.50
2022-10-02T13:44:02.986Z,84.40
2022-10-02T13:46:53.033Z,83.58
2022-10-02T13:49:47.562Z,83.91
2022-10-02T13:52:52.675Z,83.44
2022-10-02T13:55:25.386Z,83.91
2022-10-02T13:58:08.091Z,83.18
2022-10-02T14:00:38.753Z,83.51
2022-10-02T14:03:37.675Z,83.88
2022-10-02T14:06:12.631Z,83.92
2022-10-02T14:08:58.716Z,83.98
2022-10-02T14:11:35.699Z,83.79
2022-10-02T14:14:13.885Z,83.90
2022-10-02T14:17:12.336Z,83.21
2022-10-02T14:19:46.353Z,82.54
2022-10-02T14:22:16.725Z,81.23
2022-10-02T14:25:12.766Z,79.15
2022-10-02T14:28:13.180Z,79.08
2022-10-02T14:30:58.966Z,78.27
2022-10-02T14:33:41.483Z,79.05
2022-10-02T14:36:22.674Z,78.66
2022-10-02T14:39:26.314Z,78.18
2022-10-02T14:42:32.484Z,77.98
2022-10-02T14:45:19.278Z,76.95
2022-10-02T14:48:00.894Z,75.18
2022-10-02T14:50:36.485Z,76.08
2022-10-02T14:53:10.359Z,74.11
2022-10-02T14:56:08.914Z,74.89
2022-10-02T14:58:47.623Z,74.09
2022-10-02T15:01:27.596Z,75.41
2022-10-02T15:03:55.533Z,75.33
2022-10-02T15:06:23.191Z,75.01
2022-10-02T15:08:57.179Z,73.49
2022-10-02T15:11:37.363Z,73.98
2022-10-02T15:14:17.436Z,74.24
2022-10-02T15:17:20.952Z,72.76
2022-10-02T15:20:02.589Z,71.79
2022-10-02T15:22:39.500Z,70.84
2022-10-02T15:25:30.321Z,70.86
2022-10-02T15:28:36.205Z,70.46
2022-10-02T15:31:45.379Z,69.56
2022-10-02T15:34:39.685Z,70.56
2022-10-02T15:37:29.047Z,71.26
2022-10-02T15:40:11.621Z,70.65
2022-10-02T15:42:50.309Z,70.72
2022-10-02T15:46:04.287Z,70.08
2022-10-02T15:48:52.607Z,68.78
2022-10-02T15:51:39.388Z,68.57
2022-10-02T15:54:20.232Z,67.79
2022-10-02T15:57:23.300Z,68.15
2022-10-02T16:00:00.270Z,67.62
2022-10-02T16:03:07.106Z,67.71
2022-10-02T16:05:51.349Z,68.24
2022-10-02T16:09:00.763Z,67.77
2022-10-02T16:12:06.361Z,67.84
2022-10-02T16:14:58.471Z,67.16
2022-10-02T16:17:41.353Z,66.16
2022-10-02T16:20:28.267Z,65.78
2022-10-02T16:23:18.661Z,65.97
2022-10-02T16:26:05.462Z,66.49
2022-10-02T16:28:56.016Z,65.94
2022-10-02T16:31:42.505Z,65.23
2022-10-02T16:34:25.204Z,66.10
2022-10-02T16:37:00.765Z,65.53
2022-10-02T16:39:37.651Z,65.72
2022-10-02T16:42:30.169Z,66.15
2022-10-02T16:45:13.594Z,66.23
2022-10-02T16:47:53.538Z,67.06
2022-10-02T16:50:30.177Z,66.58
2022-10-02T16:53:37.237Z,67.26
2022-10-02T16:56:18.091Z,67.87
2022-10-02T16:59:01.147Z,67.76
2022-10-02T17:01:35.402Z,67.03
2022-10-02T17:04:20.814Z,65.29
2022-10-02T17:07:01.860Z,66.20
2022-10-02T17:10:19.369Z,66.55
2022-10-02T17:12:50.032Z,67.28
2022-10-02T17:15:36.349Z,67.61
2022-10-02T17:18:28.947Z,67.56
2022-10-02T17:21:04.991Z,68.03
2022-10-02T17:23:55.060Z,68.34
2022-10-02T17:26:41.883Z,68.58
2022-10-02T17:29:18.485Z,68.92
2022-10-02T17:31:58.778Z,69.45
2022-10-02T17:34:33.773Z,69.68
2022-10-02T17:37:59.236Z,69.75
2022-10-02T17:40:55.923Z,69.61
2022-10-02T17:43:42.219Z,69.87
2022-10-02T17:46:28.764Z,70.21
2022-10-02T17:49:14.233Z,69.94
2022-10-02T17:51:57.300Z,69.77
2022-10-02T17:55:04.846Z,70.31
2022-10-02T17:58:18.075Z,70.53
2022-10-02T18:01:17.903Z,70.37
2022-10-02T18:04:04.022Z,70.00
2022-10-02T18:07:12.841Z,70.02
2022-10-02T18:10:01.791Z,70.19
2022-10-02T18:12:52.870Z,70.06
2022-10-02T18:15:47.985Z,70.04
2022-10-02T18:18:33.971Z,70.04
2022-10-02T18:21:31.893Z,69.69
2022-10-02T18:24:20.999Z,69.77
2022-10-02T18:27:13.091Z,70.34
2022-10-02T18:29:40.634Z,70.07
2022-10-02T18:32:33.019Z,69.82
2022-10-02T18:35:15.794Z,69.83
2022-10-02T18:37:49.204Z,69.84
2022-10-02T18:40:49.609Z,69.83
2022-10-02T18:43:42.399Z,69.99
2022-10-02T18:46:12.795Z,70.42
2022-10-02T18:49:05.363Z,70.57
2022-10-02T18:52:10.713Z,70.83
2022-10-02T18:55:04.132Z,71.25
2022-10-02T18:57:56.847Z,71.33
2022-10-02T19:00:31.446Z,71.36
2022-10-02T19:03:17.668Z,71.97
2022-10-02T19:06:12.893Z,72.53
2022-10-02T19:09:02.312Z,73.08
2022-10-02T19:11:32.337Z,73.66
2022-10-02T19:14:04.318Z,73.72
2022-10-02T19:16:32.308Z,74.07
2022-10-02T19:19:21.452Z,74.32
2022-10-02T19:21:49.823Z,74.45
2022-10-02T19:24:24.425Z,74.67
2022-10-02T19:26:58.390Z,74.71
2022-10-02T19:29:29.789Z,74.80
2022-10-02T19:31:59.746Z,74.68
2022-10-02T19:34:33.069Z,73.86
2022-10-02T19:37:06.709Z,73.44
2022-10-02T19:39:41.190Z,73.55
2022-10-02T19:42:15.304Z,72.98
2022-10-02T19:44:52.388Z,73.13
2022-10-02T19:47:22.951Z,73.03
2022-10-02T19:49:53.372Z,73.32
2022-10-02T19:52:55.065Z,73.12
2022-10-02T19:55:29.235Z,73.48
2022-10-02T19:58:21.380Z,74.39
2022-10-02T20:00:52.829Z,74.79
2022-10-02T20:03:23.299Z,75.41
2022-10-02T20:05:54.994Z,76.01
2022-10-02T20:08:40.431Z,77.13
2022-10-02T20:11:24.191Z,78.27
2022-10-02T20:13:58.302Z,80.22
2022-10-02T20:16:45.786Z,81.60
2022-10-02T20:19:26.678Z,81.54
2022-10-02T20:21:59.968Z,82.68
2022-10-02T20:24:34.419Z,84.12
2022-10-02T20:27:11.448Z,86.33
2022-10-02T20:29:48.779Z,86.25
2022-10-02T20:32:31.654Z,86.33
2022-10-02T20:35:13.254Z,87.84
2022-10-02T20:37:42.528Z,88.21
2022-10-02T20:40:18.918Z,88.08
2022-10-02T20:43:05.265Z,88.94
2022-10-02T20:45:41.574Z,90.09
2022-10-02T20:48:39.576Z,89.98
2022-10-02T20:51:28.282Z,91.28
2022-10-02T20:54:13.570Z,91.04
2022-10-02T20:56:41.117Z,94.63
2022-10-02T20:59:38.057Z,93.51
2022-10-02T21:02:11.533Z,98.35
2022-10-02T21:04:51.426Z,96.75
2022-10-02T21:07:37.233Z,97.79
2022-10-02T21:10:13.528Z,100.00
2022-10-02T21:13:05.868Z,100.00
2022-10-02T21:16:12.140Z,100.00
2022-10-02T21:18:53.108Z,100.00
2022-10-02T21:21:53.781Z,100.00
2022-10-02T21:24:36.149Z,100.00
2022-10-02T21:27:25.418Z,100.00
2022-10-02T21:30:14.221Z,100.00
2022-10-02T21:33:17.018Z,100.00
2022-10-02T21:36:01.290Z,100.00
2022-10-02T21:38:58.613Z,100.00
2022-10-02T21:41:57.209Z,100.00
2022-10-02T21:44:47.521Z,100.00
2022-10-02T21:47:41.051Z,100.00
2022-10-02T21:50:39.919Z,100.00
2022-10-02T21:53:39.878Z,100.00
2022-10-02T21:56:29.065Z,100.00
2022-10-02T21:59:15.131Z,100.00
2022-10-02T22:02:26.177Z,100.00
2022-10-02T22:05:15.719Z,100.00
2022-10-02T22:08:00.591Z,100.00
2022-10-02T22:10:41.743Z,100.00
2022-10-02T22:13:09.348Z,100.00
2022-10-02T22:16:11.345Z,100.00
2022-10-02T22:18:45.438Z,100.00
2022-10-02T22:21:37.665Z,100.00
2022-10-02T22:24:17.530Z,100.00
2022-10-02T22:27:01.794Z,100.00
2022-10-02T22:29:55.378Z,100.00
2022-10-02T22:33:09.294Z,100.00
2022-10-02T22:36:04.988Z,100.00
2022-10-02T22:38:36.672Z,100.00
2022-10-02T22:41:25.706Z,100.00
2022-10-02T22:44:21.193Z,100.00
2022-10-02T22:46:58.400Z,100.00
2022-10-02T22:49:47.554Z,100.00
2022-10-02T22:52:43.835Z,100.00
2022-10-02T22:55:15.437Z,100.00
2022-10-02T22:57:59.837Z,100.00
2022-10-02T23:00:32.718Z,100.00
2022-10-02T23:03:09.357Z,100.00
2022-10-02T23:05:57.929Z,100.00
2022-10-02T23:08:49.731Z,100.00
2022-10-02T23:11:27.535Z,100.00
2022-10-02T23:14:02.661Z,100.00
2022-10-02T23:16:39.855Z,100.00
2022-10-02T23:19:19.524Z,100.00
2022-10-02T23:21:57.327Z,100.00
2022-10-02T23:24:37.019Z,100.00
2022-10-02T23:27:16.088Z,100.00
2022-10-02T23:30:00.438Z,100.00
2022-10-02T23:32:46.937Z,100.00
2022-10-02T23:35:27.372Z,100.00
2022-10-02T23:38:07.366Z,100.00
2022-10-02T23:41:47.977Z,100.00
2022-10-02T23:44:18.576Z,100.00
2022-10-02T23:46:49.954Z,100.00
2022-10-02T23:49:26.252Z,100.00
2022-10-02T23:52:11.965Z,100.00
2022-10-02T23:55:19.674Z,100.00
2022-10-02T23:57:52.993Z,100.00
